createdAt,value
2019-01-11T00:01:38.258Z,7.40
2019-01-11T00:04:05.964Z,7.03
2019-01-11T00:06:33.722Z,7.90
2019-01-11T00:09:01.234Z,8.00
2019-01-11T00:11:28.846Z,7.10
2019-01-11T00:13:57.045Z,7.47
2019-01-11T00:16:24.859Z,6.83
2019-01-11T00:18:52.907Z,6.43
2019-01-11T00:21:20.434Z,6.93
2019-01-11T00:23:48.004Z,10.93
2019-01-11T00:26:15.491Z,5.97
2019-01-11T00:28:44.238Z,6.63
2019-01-11T00:31:11.801Z,5.60
2019-01-11T00:33:39.750Z,6.23
2019-01-11T00:36:07.874Z,5.20
2019-01-11T00:38:35.751Z,8.13
2019-01-11T00:41:03.538Z,5.27
2019-01-11T00:43:31.027Z,5.57
2019-01-11T00:45:59.158Z,5.43
2019-01-11T00:48:26.840Z,4.80
2019-01-11T00:50:54.416Z,5.67
2019-01-11T00:53:22.706Z,6.50
2019-01-11T00:55:50.406Z,6.30
2019-01-11T00:58:17.974Z,6.83
2019-01-11T01:00:45.795Z,5.80
2019-01-11T01:03:13.474Z,5.83
2019-01-11T01:05:41.298Z,5.17
2019-01-11T01:08:08.985Z,4.60
2019-01-11T01:10:36.529Z,4.00
2019-01-11T01:13:04.996Z,5.37
2019-01-11T01:15:32.498Z,4.83
2019-01-11T01:18:00.114Z,5.40
2019-01-11T01:20:27.622Z,5.93
2019-01-11T01:22:55.143Z,4.90
2019-01-11T01:25:22.730Z,4.23
2019-01-11T01:27:50.950Z,5.33
2019-01-11T01:30:18.806Z,5.37
2019-01-11T01:32:46.362Z,4.70
2019-01-11T01:35:14.052Z,4.63
2019-01-11T01:37:41.690Z,5.27
2019-01-11T01:40:10.190Z,4.97
2019-01-11T01:42:37.682Z,6.37
2019-01-11T01:45:06.799Z,4.33
2019-01-11T01:47:34.609Z,5.30
2019-01-11T01:50:02.956Z,4.63
2019-01-11T01:52:30.790Z,5.47
2019-01-11T01:54:58.666Z,6.03
2019-01-11T01:57:26.236Z,5.53
2019-01-11T01:59:53.826Z,5.30
2019-01-11T02:02:21.330Z,5.30
2019-01-11T02:04:49.667Z,5.77
2019-01-11T02:07:17.514Z,4.70
2019-01-11T02:09:45.092Z,5.90
2019-01-11T02:12:12.655Z,6.93
2019-01-11T02:14:41.644Z,7.30
2019-01-11T02:17:10.371Z,6.70
2019-01-11T02:19:37.887Z,9.73
2019-01-11T02:22:05.550Z,8.17
2019-01-11T02:24:33.219Z,7.33
2019-01-11T02:27:00.858Z,8.27
2019-01-11T02:29:28.730Z,7.60
2019-01-11T02:31:56.302Z,8.67
2019-01-11T02:34:24.232Z,9.73
2019-01-11T02:36:52.131Z,8.20
2019-01-11T02:39:19.891Z,9.60
2019-01-11T02:41:47.460Z,12.20
2019-01-11T02:44:14.987Z,8.37
2019-01-11T02:46:42.577Z,9.37
2019-01-11T02:49:10.730Z,8.93
2019-01-11T02:51:38.624Z,7.53
2019-01-11T02:54:06.547Z,8.23
2019-01-11T02:56:34.118Z,7.30
2019-01-11T02:59:02.908Z,9.27
2019-01-11T03:01:30.866Z,7.43
2019-01-11T03:03:58.468Z,10.10
2019-01-11T03:06:26.344Z,8.67
2019-01-11T03:08:54.235Z,8.17
2019-01-11T03:11:21.806Z,7.47
2019-01-11T03:13:49.291Z,8.87
2019-01-11T03:16:17.274Z,7.33
2019-01-11T03:18:45.031Z,6.23
2019-01-11T03:21:12.652Z,9.20
2019-01-11T03:23:40.742Z,7.80
2019-01-11T03:26:08.663Z,7.77
2019-01-11T03:28:36.146Z,8.17
2019-01-11T03:31:13.023Z,8.33
2019-01-11T03:33:40.604Z,8.30
2019-01-11T03:36:08.180Z,10.63
2019-01-11T03:38:36.195Z,8.13
2019-01-11T03:41:04.149Z,7.87
2019-01-11T03:43:32.032Z,8.37
2019-01-11T03:46:00.315Z,7.83
2019-01-11T03:48:27.831Z,9.60
2019-01-11T03:50:55.437Z,10.17
2019-01-11T03:53:23.268Z,10.87
2019-01-11T03:55:50.827Z,8.17
2019-01-11T03:58:18.556Z,7.53
2019-01-11T04:00:46.391Z,9.57
2019-01-11T04:03:13.962Z,12.70
2019-01-11T04:05:41.516Z,9.10
2019-01-11T04:08:09.396Z,8.67
2019-01-11T04:10:36.994Z,12.50
2019-01-11T04:13:04.793Z,10.20
2019-01-11T04:15:32.338Z,10.50
2019-01-11T04:18:37.739Z,10.20
2019-01-11T04:21:05.371Z,10.70
2019-01-11T04:23:32.898Z,9.50
2019-01-11T04:26:00.823Z,9.27
2019-01-11T04:28:28.335Z,10.30
2019-01-11T04:30:55.826Z,10.32
2019-01-11T04:33:23.310Z,9.37
2019-01-11T04:35:51.263Z,9.50
2019-01-11T04:38:18.845Z,9.20
2019-01-11T04:40:46.553Z,10.30
2019-01-11T04:43:15.058Z,8.77
2019-01-11T04:45:42.616Z,9.07
2019-01-11T04:48:10.495Z,8.57
2019-01-11T04:50:38.409Z,8.90
2019-01-11T04:53:06.278Z,12.30
2019-01-11T04:55:34.082Z,8.60
2019-01-11T04:58:01.911Z,11.43
2019-01-11T05:00:30.100Z,11.20
2019-01-11T05:02:58.386Z,9.90
2019-01-11T05:05:26.221Z,11.27
2019-01-11T05:07:54.241Z,8.47
2019-01-11T05:10:22.111Z,14.00
2019-01-11T05:12:49.928Z,8.47
2019-01-11T05:15:18.159Z,8.90
2019-01-11T05:17:46.113Z,9.00
2019-01-11T05:20:16.753Z,9.67
2019-01-11T05:22:45.490Z,10.33
2019-01-11T05:25:13.372Z,9.60
2019-01-11T05:27:40.895Z,9.50
2019-01-11T05:30:12.149Z,8.67
2019-01-11T05:32:39.636Z,10.07
2019-01-11T05:35:09.674Z,9.35
2019-01-11T05:37:37.810Z,9.33
2019-01-11T05:40:08.395Z,8.47
2019-01-11T05:42:36.806Z,11.77
2019-01-11T05:45:05.164Z,8.37
2019-01-11T05:47:33.690Z,11.53
2019-01-11T05:50:01.137Z,11.43
2019-01-11T05:52:28.675Z,10.30
2019-01-11T05:54:57.059Z,9.13
2019-01-11T05:57:24.663Z,9.63
2019-01-11T05:59:52.788Z,10.33
2019-01-11T06:02:21.081Z,11.30
2019-01-11T06:04:51.943Z,10.27
2019-01-11T06:07:28.158Z,14.07
2019-01-11T06:09:55.940Z,13.20
2019-01-11T06:12:23.474Z,10.03
2019-01-11T06:14:51.314Z,11.80
2019-01-11T06:17:19.316Z,15.67
2019-01-11T06:19:48.022Z,11.10
2019-01-11T06:22:16.222Z,12.53
2019-01-11T06:24:43.985Z,15.90
2019-01-11T06:27:11.798Z,12.33
2019-01-11T06:29:39.611Z,14.87
2019-01-11T06:32:07.498Z,13.73
2019-01-11T06:34:35.627Z,13.03
2019-01-11T06:37:03.226Z,11.40
2019-01-11T06:39:30.982Z,14.07
2019-01-11T06:42:06.805Z,13.18
2019-01-11T06:44:38.906Z,15.58
2019-01-11T06:47:04.118Z,12.53
2019-01-11T06:49:31.963Z,11.08
2019-01-11T06:51:59.582Z,12.25
2019-01-11T06:54:27.889Z,12.15
2019-01-11T06:56:56.140Z,10.30
2019-01-11T06:59:23.654Z,10.70
2019-01-11T07:01:51.530Z,12.73
2019-01-11T07:04:19.938Z,10.65
2019-01-11T07:06:49.906Z,12.23
2019-01-11T07:09:17.648Z,12.20
2019-01-11T07:11:45.467Z,11.28
2019-01-11T07:14:13.283Z,10.45
2019-01-11T07:16:41.071Z,9.63
2019-01-11T07:19:09.346Z,12.75
2019-01-11T07:21:37.175Z,11.03
2019-01-11T07:24:04.714Z,15.95
2019-01-11T07:26:32.493Z,10.93
2019-01-11T07:29:00.491Z,10.80
2019-01-11T07:31:31.482Z,15.75
2019-01-11T07:33:59.660Z,11.33
2019-01-11T07:36:28.386Z,12.67
2019-01-11T07:38:57.390Z,19.00
2019-01-11T07:41:25.148Z,13.40
2019-01-11T07:43:53.286Z,13.23
2019-01-11T07:46:21.054Z,11.97
2019-01-11T07:48:48.964Z,11.50
2019-01-11T07:51:16.842Z,13.47
2019-01-11T07:53:45.018Z,11.63
2019-01-11T07:56:12.794Z,13.00
2019-01-11T07:58:40.661Z,14.60
2019-01-11T08:01:08.558Z,12.95
2019-01-11T08:03:36.095Z,12.80
2019-01-11T08:06:04.344Z,15.70
2019-01-11T08:08:32.214Z,13.05
2019-01-11T08:11:00.407Z,11.57
2019-01-11T08:13:27.998Z,14.90
2019-01-11T08:15:55.794Z,13.50
2019-01-11T08:18:25.443Z,14.58
2019-01-11T08:20:56.403Z,14.70
2019-01-11T08:23:22.810Z,17.17
2019-01-11T08:25:50.642Z,16.47
2019-01-11T08:28:19.011Z,19.87
2019-01-11T08:30:46.971Z,20.12
2019-01-11T08:33:18.725Z,16.17
2019-01-11T08:35:44.587Z,19.05
2019-01-11T08:38:12.211Z,16.70
2019-01-11T08:40:40.282Z,17.50
2019-01-11T08:43:08.198Z,17.35
2019-01-11T08:45:35.694Z,19.23
2019-01-11T08:48:03.903Z,16.70
2019-01-11T08:50:31.780Z,15.32
2019-01-11T08:52:59.678Z,17.32
2019-01-11T08:55:28.386Z,16.70
2019-01-11T08:57:56.039Z,18.02
2019-01-11T09:00:23.994Z,15.30
2019-01-11T09:02:51.521Z,17.80
2019-01-11T09:05:19.014Z,20.57
2019-01-11T09:07:46.846Z,19.40
2019-01-11T09:10:14.912Z,18.02
2019-01-11T09:12:43.129Z,18.98
2019-01-11T09:15:11.290Z,20.17
2019-01-11T09:17:58.335Z,18.40
2019-01-11T09:20:26.271Z,18.03
2019-01-11T09:22:57.167Z,23.00
2019-01-11T09:25:25.040Z,20.20
2019-01-11T09:27:52.743Z,21.60
2019-01-11T09:30:20.920Z,18.70
2019-01-11T09:32:48.524Z,22.82
2019-01-11T09:35:16.346Z,19.12
2019-01-11T09:37:43.882Z,18.52
2019-01-11T09:40:11.678Z,17.62
2019-01-11T09:42:39.604Z,20.57
2019-01-11T09:45:07.577Z,22.20
2019-01-11T09:47:35.154Z,20.68
2019-01-11T09:50:03.769Z,22.62
2019-01-11T09:52:31.670Z,24.23
2019-01-11T09:54:59.244Z,23.10
2019-01-11T09:57:26.713Z,18.77
2019-01-11T09:59:54.339Z,21.93
2019-01-11T10:02:53.331Z,23.83
2019-01-11T10:05:26.618Z,19.85
2019-01-11T10:07:54.911Z,19.50
2019-01-11T10:10:22.710Z,24.83
2019-01-11T10:12:50.831Z,33.00
2019-01-11T10:15:18.837Z,23.83
2019-01-11T10:17:49.187Z,25.83
2019-01-11T10:20:16.748Z,24.40
2019-01-11T10:22:44.355Z,25.30
2019-01-11T10:25:11.836Z,27.83
2019-01-11T10:27:39.604Z,21.50
2019-01-11T10:30:11.335Z,20.57
2019-01-11T10:32:39.426Z,23.80
2019-01-11T10:35:07.311Z,19.90
2019-01-11T10:37:35.370Z,22.93
2019-01-11T10:40:04.654Z,22.17
2019-01-11T10:42:32.581Z,23.50
2019-01-11T10:45:00.771Z,24.75
2019-01-11T10:47:28.935Z,26.30
2019-01-11T10:49:56.710Z,24.83
2019-01-11T10:52:24.174Z,23.47
2019-01-11T10:54:52.030Z,22.27
2019-01-11T10:57:20.352Z,22.30
2019-01-11T10:59:48.242Z,26.25
2019-01-11T11:02:15.954Z,24.77
2019-01-11T11:04:43.779Z,21.93
2019-01-11T11:07:11.379Z,21.93
2019-01-11T11:09:39.583Z,22.50
2019-01-11T11:12:07.660Z,23.30
2019-01-11T11:14:35.859Z,25.63
2019-01-11T11:17:03.721Z,23.17
2019-01-11T11:19:31.714Z,22.20
2019-01-11T11:21:59.856Z,24.40
2019-01-11T11:24:28.420Z,23.23
2019-01-11T11:26:56.533Z,23.17
2019-01-11T11:29:24.723Z,24.63
2019-01-11T11:31:52.262Z,23.80
2019-01-11T11:34:26.805Z,25.33
2019-01-11T11:36:55.002Z,26.10
2019-01-11T11:39:22.489Z,23.23
2019-01-11T11:41:50.423Z,26.50
2019-01-11T11:44:18.259Z,27.73
2019-01-11T11:46:45.802Z,27.60
2019-01-11T11:49:13.773Z,28.47
2019-01-11T11:51:41.694Z,24.10
2019-01-11T11:54:09.850Z,27.48
2019-01-11T11:56:37.969Z,24.85
2019-01-11T11:59:05.430Z,28.60
2019-01-11T12:01:33.337Z,29.43
2019-01-11T12:04:01.082Z,27.57
2019-01-11T12:06:29.507Z,28.30
2019-01-11T12:08:57.381Z,33.02
2019-01-11T12:11:25.370Z,28.25
2019-01-11T12:13:53.012Z,30.57
2019-01-11T12:16:20.919Z,25.25
2019-01-11T12:18:48.723Z,30.03
2019-01-11T12:21:16.602Z,28.10
2019-01-11T12:23:48.723Z,28.77
2019-01-11T12:26:16.757Z,24.35
2019-01-11T12:28:44.354Z,27.03
2019-01-11T12:31:12.323Z,24.47
2019-01-11T12:33:39.792Z,24.90
2019-01-11T12:36:07.540Z,23.55
2019-01-11T12:38:35.421Z,25.40
2019-01-11T12:41:03.379Z,23.67
2019-01-11T12:43:32.340Z,23.42
2019-01-11T12:46:00.195Z,31.10
2019-01-11T12:48:27.899Z,23.27
2019-01-11T12:50:55.519Z,25.83
2019-01-11T12:53:23.143Z,22.00
2019-01-11T12:55:51.091Z,26.60
2019-01-11T12:58:18.651Z,25.63
2019-01-11T13:00:46.306Z,24.27
2019-01-11T13:03:14.207Z,26.02
2019-01-11T13:05:41.714Z,29.10
2019-01-11T13:08:10.034Z,23.93
2019-01-11T13:10:37.519Z,29.42
2019-01-11T13:13:05.103Z,26.83
2019-01-11T13:15:32.711Z,23.42
2019-01-11T13:18:00.728Z,24.45
2019-01-11T13:20:28.970Z,26.40
2019-01-11T13:22:57.322Z,25.60
2019-01-11T13:25:25.223Z,26.77
2019-01-11T13:27:53.674Z,24.40
2019-01-11T13:30:21.587Z,25.13
2019-01-11T13:32:49.354Z,28.40
2019-01-11T13:35:17.145Z,21.40
2019-01-11T13:37:44.894Z,26.33
2019-01-11T13:40:17.439Z,27.60
2019-01-11T13:42:45.057Z,35.95
2019-01-11T13:45:14.583Z,25.85
2019-01-11T13:47:42.312Z,29.77
2019-01-11T13:50:29.743Z,22.87
2019-01-11T13:52:58.542Z,25.60
2019-01-11T13:55:26.105Z,22.65
2019-01-11T13:57:54.271Z,27.60
2019-01-11T14:00:22.504Z,26.15
2019-01-11T14:02:50.534Z,23.27
2019-01-11T14:05:18.170Z,24.07
2019-01-11T14:07:46.383Z,27.60
2019-01-11T14:10:14.166Z,24.57
2019-01-11T14:12:42.297Z,24.50
2019-01-11T14:15:09.856Z,24.00
2019-01-11T14:17:38.122Z,24.80
2019-01-11T14:20:05.899Z,26.90
2019-01-11T14:22:33.843Z,24.27
2019-01-11T14:25:01.374Z,25.57
2019-01-11T14:27:29.338Z,23.47
2019-01-11T14:29:57.216Z,26.53
2019-01-11T14:32:25.159Z,22.15
2019-01-11T14:34:52.794Z,20.87
2019-01-11T14:37:20.937Z,25.20
2019-01-11T14:39:48.810Z,21.60
2019-01-11T14:42:16.278Z,19.90
2019-01-11T14:44:43.828Z,21.93
2019-01-11T14:47:12.102Z,20.30
2019-01-11T14:49:39.987Z,19.90
2019-01-11T14:52:07.513Z,21.17
2019-01-11T14:54:36.071Z,20.10
2019-01-11T14:57:03.911Z,28.10
2019-01-11T14:59:31.917Z,25.92
2019-01-11T15:01:59.657Z,24.18
2019-01-11T15:04:27.130Z,25.15
2019-01-11T15:06:55.453Z,24.07
2019-01-11T15:09:23.867Z,23.03
2019-01-11T15:11:54.331Z,22.33
2019-01-11T15:14:22.548Z,24.70
2019-01-11T15:16:51.104Z,26.17
2019-01-11T15:19:19.490Z,22.20
2019-01-11T15:21:47.785Z,23.37
2019-01-11T15:24:17.724Z,24.20
2019-01-11T15:26:46.756Z,22.60
2019-01-11T15:29:16.146Z,21.33
2019-01-11T15:31:44.839Z,22.53
2019-01-11T15:34:13.499Z,20.37
2019-01-11T15:36:41.395Z,21.62
2019-01-11T15:39:09.412Z,21.60
2019-01-11T15:41:37.612Z,26.35
2019-01-11T15:44:05.854Z,24.97
2019-01-11T15:46:34.251Z,22.83
2019-01-11T15:49:01.746Z,24.63
2019-01-11T15:51:30.751Z,23.30
2019-01-11T15:54:01.391Z,22.60
2019-01-11T15:56:30.090Z,21.27
2019-01-11T15:58:57.971Z,22.30
2019-01-11T16:01:27.348Z,24.77
2019-01-11T16:04:02.619Z,22.03
2019-01-11T16:06:33.274Z,23.57
2019-01-11T16:09:54.916Z,22.33
2019-01-11T16:12:23.211Z,22.50
2019-01-11T16:14:59.546Z,23.07
2019-01-11T16:17:28.159Z,24.00
2019-01-11T16:19:58.322Z,24.75
2019-01-11T16:22:26.749Z,20.63
2019-01-11T16:24:55.299Z,23.80
2019-01-11T16:27:23.659Z,25.07
2019-01-11T16:29:51.511Z,25.47
2019-01-11T16:32:21.620Z,24.37
2019-01-11T16:34:49.251Z,21.40
2019-01-11T16:37:17.259Z,25.50
2019-01-11T16:39:44.963Z,29.90
2019-01-11T16:42:12.904Z,22.60
2019-01-11T16:44:41.149Z,24.50
2019-01-11T16:47:09.069Z,25.60
2019-01-11T16:49:36.949Z,21.73
2019-01-11T16:52:07.104Z,23.52
2019-01-11T16:54:37.438Z,22.67
2019-01-11T16:57:05.492Z,23.67
2019-01-11T16:59:33.391Z,25.37
2019-01-11T17:02:00.962Z,19.60
2019-01-11T17:04:28.875Z,23.38
2019-01-11T17:06:56.492Z,19.92
2019-01-11T17:09:24.370Z,20.12
2019-01-11T17:11:53.039Z,19.62
2019-01-11T17:14:20.850Z,19.25
2019-01-11T17:16:48.467Z,22.73
2019-01-11T17:19:16.230Z,23.15
2019-01-11T17:21:43.862Z,21.82
2019-01-11T17:24:12.034Z,20.20
2019-01-11T17:26:39.483Z,23.47
2019-01-11T17:29:07.076Z,21.77
2019-01-11T17:31:34.555Z,28.45
2019-01-11T17:34:02.428Z,19.60
2019-01-11T17:36:30.294Z,21.60
2019-01-11T17:38:58.150Z,21.68
2019-01-11T17:41:25.766Z,23.75
2019-01-11T17:43:53.623Z,22.23
2019-01-11T17:46:21.240Z,21.42
2019-01-11T17:48:48.831Z,20.62
2019-01-11T17:51:16.827Z,19.10
2019-01-11T17:53:44.412Z,23.60
2019-01-11T17:56:12.287Z,23.77
2019-01-11T17:58:40.210Z,22.60
2019-01-11T18:01:07.875Z,22.10
2019-01-11T18:03:35.482Z,24.20
2019-01-11T18:06:03.694Z,25.05
2019-01-11T18:08:31.658Z,24.30
2019-01-11T18:11:00.775Z,24.82
2019-01-11T18:13:28.387Z,23.67
2019-01-11T18:15:56.306Z,22.40
2019-01-11T18:18:23.910Z,22.77
2019-01-11T18:20:51.760Z,25.57
2019-01-11T18:23:19.627Z,22.85
2019-01-11T18:25:47.814Z,23.85
2019-01-11T18:28:15.331Z,24.72
2019-01-11T18:30:43.152Z,24.43
2019-01-11T18:33:10.731Z,27.25
2019-01-11T18:35:39.333Z,27.87
2019-01-11T18:38:07.274Z,26.52
2019-01-11T18:40:34.778Z,24.10
2019-01-11T18:43:02.352Z,28.27
2019-01-11T18:45:29.966Z,24.87
2019-01-11T18:47:57.533Z,22.93
2019-01-11T18:50:25.532Z,29.15
2019-01-11T18:52:53.166Z,23.80
2019-01-11T18:55:20.671Z,26.70
2019-01-11T18:57:48.699Z,25.40
2019-01-11T19:00:18.721Z,24.07
2019-01-11T19:02:46.476Z,28.95
2019-01-11T19:05:14.242Z,23.90
2019-01-11T19:07:46.149Z,25.43
2019-01-11T19:10:13.096Z,25.80
2019-01-11T19:12:41.007Z,25.57
2019-01-11T19:15:10.548Z,22.73
2019-01-11T19:17:38.312Z,25.02
2019-01-11T19:20:10.695Z,26.60
2019-01-11T19:22:39.008Z,23.17
2019-01-11T19:25:08.726Z,26.43
2019-01-11T19:27:36.546Z,27.62
2019-01-11T19:30:07.892Z,26.97
2019-01-11T19:32:36.047Z,23.40
2019-01-11T19:35:04.133Z,25.90
2019-01-11T19:37:32.379Z,24.95
2019-01-11T19:40:00.305Z,23.83
2019-01-11T19:42:27.902Z,23.42
2019-01-11T19:44:55.727Z,22.43
2019-01-11T19:47:23.683Z,25.55
2019-01-11T19:49:51.193Z,25.90
2019-01-11T19:52:19.082Z,23.73
2019-01-11T19:54:47.040Z,23.75
2019-01-11T19:57:15.470Z,30.57
2019-01-11T19:59:43.390Z,26.05
2019-01-11T20:02:11.010Z,29.35
2019-01-11T20:04:38.583Z,29.03
2019-01-11T20:07:06.071Z,25.90
2019-01-11T20:09:34.735Z,22.55
2019-01-11T20:12:02.553Z,27.20
2019-01-11T20:14:30.027Z,30.57
2019-01-11T20:16:57.963Z,26.50
2019-01-11T20:19:25.630Z,27.47
2019-01-11T20:21:53.470Z,26.80
2019-01-11T20:24:21.026Z,24.50
2019-01-11T20:26:48.854Z,24.52
2019-01-11T20:29:16.318Z,26.55
2019-01-11T20:31:44.143Z,29.02
2019-01-11T20:34:12.039Z,30.33
2019-01-11T20:36:49.091Z,23.70
2019-01-11T20:39:16.601Z,26.17
2019-01-11T20:41:44.794Z,27.50
2019-01-11T20:44:12.343Z,26.20
2019-01-11T20:46:40.399Z,25.30
2019-01-11T20:49:07.953Z,29.17
2019-01-11T20:51:35.823Z,24.77
2019-01-11T20:54:03.767Z,27.77
2019-01-11T20:56:32.819Z,30.40
2019-01-11T20:59:00.952Z,24.77
2019-01-11T21:01:28.851Z,24.33
2019-01-11T21:03:56.452Z,25.67
2019-01-11T21:06:24.069Z,25.27
2019-01-11T21:08:51.814Z,23.23
2019-01-11T21:11:19.472Z,25.47
2019-01-11T21:13:47.339Z,24.33
2019-01-11T21:16:15.450Z,26.37
2019-01-11T21:18:43.227Z,23.50
2019-01-11T21:21:11.038Z,24.40
2019-01-11T21:23:39.028Z,27.50
2019-01-11T21:26:07.278Z,25.67
2019-01-11T21:28:35.072Z,25.50
2019-01-11T21:31:02.555Z,22.80
2019-01-11T21:33:30.421Z,23.30
2019-01-11T21:35:57.960Z,30.10
2019-01-11T21:38:25.862Z,22.20
2019-01-11T21:40:53.438Z,24.50
2019-01-11T21:43:21.050Z,24.47
2019-01-11T21:45:48.614Z,23.40
2019-01-11T21:48:16.794Z,25.73
2019-01-11T21:50:44.301Z,23.10
2019-01-11T21:53:12.343Z,28.17
2019-01-11T21:55:40.179Z,23.07
2019-01-11T21:58:08.082Z,22.40
2019-01-11T22:00:40.751Z,27.40
2019-01-11T22:03:11.902Z,23.30
2019-01-11T22:05:39.559Z,22.70
2019-01-11T22:08:07.194Z,23.33
2019-01-11T22:10:34.957Z,23.37
2019-01-11T22:13:02.554Z,25.30
2019-01-11T22:15:30.274Z,21.03
2019-01-11T22:17:57.918Z,19.10
2019-01-11T22:20:25.743Z,25.40
2019-01-11T22:22:53.418Z,21.83
2019-01-11T22:25:20.973Z,22.37
2019-01-11T22:27:48.562Z,24.67
2019-01-11T22:30:17.891Z,25.47
2019-01-11T22:32:46.114Z,25.07
2019-01-11T22:35:13.736Z,27.05
2019-01-11T22:37:41.977Z,24.07
2019-01-11T22:40:12.742Z,24.90
2019-01-11T22:42:41.018Z,27.23
2019-01-11T22:45:10.235Z,23.93
2019-01-11T22:47:38.027Z,26.30
2019-01-11T22:50:06.050Z,28.43
2019-01-11T22:52:34.214Z,26.57
2019-01-11T22:55:01.907Z,23.73
2019-01-11T22:57:29.446Z,29.67
2019-01-11T22:59:57.282Z,25.27
2019-01-11T23:02:32.747Z,23.33
2019-01-11T23:05:00.642Z,25.48
2019-01-11T23:07:36.346Z,34.43
2019-01-11T23:10:47.562Z,25.27
2019-01-11T23:13:16.306Z,28.33
2019-01-11T23:15:47.886Z,29.30
2019-01-11T23:18:18.006Z,26.90
2019-01-11T23:20:47.355Z,24.10
2019-01-11T23:23:15.254Z,25.40
2019-01-11T23:25:42.731Z,24.40
2019-01-11T23:28:11.214Z,25.60
2019-01-11T23:30:39.007Z,27.63
2019-01-11T23:33:06.631Z,26.07
2019-01-11T23:35:34.507Z,24.13
2019-01-11T23:38:02.618Z,25.83
2019-01-11T23:40:30.097Z,23.47
2019-01-11T23:42:58.077Z,33.87
2019-01-11T23:45:25.572Z,28.10
2019-01-11T23:47:53.407Z,30.37
2019-01-11T23:50:20.916Z,28.57
2019-01-11T23:52:48.530Z,27.63
2019-01-11T23:55:16.427Z,31.17
2019-01-11T23:57:43.934Z,25.47
